createdAt,value
2018-08-16T00:01:46.466Z,100436.70
2018-08-16T00:04:17.530Z,100437.20
2018-08-16T00:06:48.510Z,100439.66
2018-08-16T00:09:19.526Z,100436.52
2018-08-16T00:11:50.513Z,100436.22
2018-08-16T00:14:21.488Z,100442.23
2018-08-16T00:16:52.525Z,100434.52
2018-08-16T00:19:23.514Z,100440.91
2018-08-16T00:21:54.609Z,100434.22
2018-08-16T00:24:25.566Z,100431.89
2018-08-16T00:26:56.553Z,100427.92
2018-08-16T00:29:27.562Z,100422.22
2018-08-16T00:31:58.494Z,100428.74
2018-08-16T00:34:29.519Z,100424.09
2018-08-16T00:37:00.534Z,100423.58
2018-08-16T00:39:31.501Z,100426.12
2018-08-16T00:42:02.502Z,100428.33
2018-08-16T00:44:33.510Z,100426.29
2018-08-16T00:47:04.513Z,100426.64
2018-08-16T00:49:35.545Z,100420.13
2018-08-16T00:52:06.565Z,100424.14
2018-08-16T00:54:37.558Z,100418.61
2018-08-16T00:57:08.535Z,100412.77
2018-08-16T00:59:39.521Z,100418.09
2018-08-16T01:02:10.533Z,100416.61
2018-08-16T01:04:41.538Z,100414.95
2018-08-16T01:07:12.565Z,100414.59
2018-08-16T01:09:43.534Z,100412.91
2018-08-16T01:12:14.518Z,100406.89
2018-08-16T01:14:45.626Z,100408.27
2018-08-16T01:17:16.479Z,100410.44
2018-08-16T01:19:47.517Z,100410.27
2018-08-16T01:22:18.522Z,100409.59
2018-08-16T01:24:49.503Z,100405.92
2018-08-16T01:27:20.517Z,100405.23
2018-08-16T01:29:51.534Z,100404.24
2018-08-16T01:32:22.503Z,100405.27
2018-08-16T01:34:53.527Z,100399.56
2018-08-16T01:37:24.520Z,100397.90
2018-08-16T01:39:55.515Z,100402.76
2018-08-16T01:42:26.486Z,100399.23
2018-08-16T01:44:57.504Z,100403.42
2018-08-16T01:47:29.010Z,100399.41
2018-08-16T01:50:00.254Z,100389.53
2018-08-16T01:52:31.368Z,100391.88
2018-08-16T01:55:02.522Z,100392.20
2018-08-16T01:57:33.477Z,100390.55
2018-08-16T02:00:06.533Z,100386.05
2018-08-16T02:02:37.565Z,100391.54
2018-08-16T02:05:08.891Z,100390.55
2018-08-16T02:07:39.606Z,100392.20
2018-08-16T02:10:10.814Z,100388.86
2018-08-16T02:12:41.611Z,100380.52
2018-08-16T02:15:14.447Z,100383.86
2018-08-16T02:17:45.492Z,100386.19
2018-08-16T02:20:16.521Z,100385.36
2018-08-16T02:22:47.543Z,100386.72
2018-08-16T02:25:18.487Z,100391.05
2018-08-16T02:27:49.476Z,100388.55
2018-08-16T02:30:20.539Z,100388.20
2018-08-16T02:32:51.487Z,100388.70
2018-08-16T02:35:22.521Z,100389.87
2018-08-16T02:37:53.509Z,100383.55
2018-08-16T02:40:24.496Z,100387.22
2018-08-16T02:42:56.200Z,100379.84
2018-08-16T02:45:27.562Z,100373.85
2018-08-16T02:47:58.513Z,100371.83
2018-08-16T02:50:31.509Z,100377.52
2018-08-16T02:53:02.561Z,100380.01
2018-08-16T02:55:33.503Z,100380.83
2018-08-16T02:58:04.526Z,100376.48
2018-08-16T03:00:35.543Z,100374.12
2018-08-16T03:03:06.581Z,100372.13
2018-08-16T03:05:37.508Z,100371.94
2018-08-16T03:08:09.012Z,100377.06
2018-08-16T03:10:40.241Z,100366.86
2018-08-16T03:13:11.377Z,100373.88
2018-08-16T03:15:42.453Z,100371.42
2018-08-16T03:18:13.544Z,100377.59
2018-08-16T03:20:44.497Z,100369.28
2018-08-16T03:23:15.481Z,100366.07
2018-08-16T03:25:46.526Z,100365.30
2018-08-16T03:28:17.471Z,100365.97
2018-08-16T03:30:48.508Z,100358.78
2018-08-16T03:33:19.504Z,100359.88
2018-08-16T03:35:50.497Z,100359.74
2018-08-16T03:38:21.501Z,100350.43
2018-08-16T03:40:52.541Z,100352.17
2018-08-16T03:43:23.553Z,100345.06
2018-08-16T03:45:54.567Z,100349.12
2018-08-16T03:48:25.468Z,100350.78
2018-08-16T03:50:56.708Z,100349.88
2018-08-16T03:53:27.570Z,100343.13
2018-08-16T03:55:58.505Z,100342.78
2018-08-16T03:58:29.498Z,100343.59
2018-08-16T04:01:00.493Z,100340.52
2018-08-16T04:03:31.798Z,100338.90
2018-08-16T04:06:02.638Z,100346.91
2018-08-16T04:08:33.541Z,100341.28
2018-08-16T04:11:04.542Z,100346.91
2018-08-16T04:13:35.525Z,100347.45
2018-08-16T04:16:06.555Z,100348.95
2018-08-16T04:18:37.489Z,100352.30
2018-08-16T04:21:08.507Z,100347.28
2018-08-16T04:23:39.564Z,100352.83
2018-08-16T04:28:55.425Z,100349.66
2018-08-16T04:31:26.518Z,100348.33
2018-08-16T04:33:57.785Z,100346.63
2018-08-16T04:36:28.615Z,100349.97
2018-08-16T04:38:59.510Z,100355.94
2018-08-16T04:41:30.564Z,100358.29
2018-08-16T04:44:01.509Z,100348.23
2018-08-16T04:46:32.517Z,100346.30
2018-08-16T04:49:03.558Z,100351.30
2018-08-16T04:51:34.596Z,100349.80
2018-08-16T04:54:05.503Z,100344.97
2018-08-16T04:56:36.514Z,100340.61
2018-08-16T04:59:07.494Z,100344.63
2018-08-16T05:01:38.529Z,100349.58
2018-08-16T05:04:09.495Z,100346.13
2018-08-16T05:06:40.510Z,100345.77
2018-08-16T05:09:11.526Z,100347.60
2018-08-16T05:11:42.774Z,100343.41
2018-08-16T05:14:13.569Z,100346.94
2018-08-16T05:16:44.517Z,100350.13
2018-08-16T05:19:15.541Z,100351.33
2018-08-16T05:21:46.572Z,100354.27
2018-08-16T05:24:17.580Z,100356.53
2018-08-16T05:26:48.597Z,100359.88
2018-08-16T05:29:19.556Z,100354.22
2018-08-16T05:31:50.540Z,100351.08
2018-08-16T05:34:21.634Z,100355.47
2018-08-16T05:36:52.569Z,100354.91
2018-08-16T05:39:23.490Z,100349.93
2018-08-16T05:41:54.485Z,100340.98
2018-08-16T05:44:25.468Z,100351.83
2018-08-16T05:46:56.536Z,100348.30
2018-08-16T05:49:27.515Z,100350.19
2018-08-16T05:51:58.576Z,100346.66
2018-08-16T05:54:30.045Z,100340.98
2018-08-16T05:57:01.390Z,100338.33
2018-08-16T05:59:32.507Z,100340.22
2018-08-16T06:02:03.523Z,100337.03
2018-08-16T06:04:34.493Z,100335.85
2018-08-16T06:07:05.501Z,100330.38
2018-08-16T06:09:36.489Z,100339.71
2018-08-16T06:12:07.512Z,100333.91
2018-08-16T06:14:38.444Z,100330.92
2018-08-16T06:17:09.580Z,100333.75
2018-08-16T06:19:41.724Z,100334.39
2018-08-16T06:22:12.659Z,100335.06
2018-08-16T06:24:43.577Z,100337.70
2018-08-16T06:27:14.493Z,100325.48
2018-08-16T06:29:45.519Z,100318.61
2018-08-16T06:32:16.492Z,100314.39
2018-08-16T06:34:47.520Z,100319.56
2018-08-16T06:37:18.504Z,100318.66
2018-08-16T06:39:49.473Z,100324.86
2018-08-16T06:42:20.497Z,100308.08
2018-08-16T06:44:51.490Z,100315.64
2018-08-16T06:47:22.499Z,100310.23
2018-08-16T06:49:53.494Z,100312.16
2018-08-16T06:52:24.523Z,100302.95
2018-08-16T06:54:55.457Z,100304.25
2018-08-16T06:57:26.524Z,100306.19
2018-08-16T06:59:57.513Z,100301.73
2018-08-16T07:02:28.622Z,100303.16
2018-08-16T07:04:59.581Z,100295.61
2018-08-16T07:07:30.525Z,100306.11
2018-08-16T07:10:01.461Z,100296.67
2018-08-16T07:12:32.561Z,100288.55
2018-08-16T07:15:03.487Z,100292.12
2018-08-16T07:17:34.491Z,100290.94
2018-08-16T07:20:06.387Z,100292.52
2018-08-16T07:22:37.502Z,100288.30
2018-08-16T07:25:09.409Z,100288.87
2018-08-16T07:27:40.485Z,100285.94
2018-08-16T07:30:12.512Z,100281.95
2018-08-16T07:32:43.489Z,100287.66
2018-08-16T07:35:14.485Z,100283.33
2018-08-16T07:37:45.522Z,100274.61
2018-08-16T07:40:16.508Z,100274.52
2018-08-16T07:42:47.513Z,100272.62
2018-08-16T07:45:18.503Z,100268.73
2018-08-16T07:47:49.543Z,100267.64
2018-08-16T07:50:20.524Z,100263.52
2018-08-16T07:52:51.538Z,100264.63
2018-08-16T07:55:22.509Z,100270.34
2018-08-16T07:57:53.534Z,100262.80
2018-08-16T08:00:24.526Z,100269.10
2018-08-16T08:02:55.526Z,100267.17
2018-08-16T08:05:26.509Z,100269.75
2018-08-16T08:07:57.524Z,100265.65
2018-08-16T08:10:28.627Z,100272.98
2018-08-16T08:12:59.542Z,100265.16
2018-08-16T08:15:30.593Z,100268.06
2018-08-16T08:18:01.531Z,100259.29
2018-08-16T08:20:32.525Z,100255.19
2018-08-16T08:23:03.521Z,100260.45
2018-08-16T08:25:34.603Z,100255.49
2018-08-16T08:28:06.019Z,100255.70
2018-08-16T08:30:37.290Z,100243.73
2018-08-16T08:33:08.398Z,100242.14
2018-08-16T08:35:39.465Z,100241.67
2018-08-16T08:38:18.179Z,100238.73
2018-08-16T08:40:49.299Z,100236.34
2018-08-16T08:43:43.284Z,100230.59
2018-08-16T08:46:14.361Z,100221.98
2018-08-16T08:48:45.357Z,100228.45
2018-08-16T08:51:16.390Z,100229.04
2018-08-16T08:55:09.198Z,100218.27
2018-08-16T08:59:00.475Z,100215.88
2018-08-16T09:01:31.497Z,100214.03
2018-08-16T09:04:02.515Z,100208.95
2018-08-16T09:06:33.486Z,100208.70
2018-08-16T09:09:05.503Z,100201.78
2018-08-16T09:11:59.531Z,100195.76
2018-08-16T09:14:53.488Z,100198.69
2018-08-16T09:17:24.538Z,100202.56
2018-08-16T09:19:55.487Z,100203.53
2018-08-16T09:22:26.473Z,100201.33
2018-08-16T09:24:57.485Z,100191.42
2018-08-16T09:27:28.302Z,100195.16
2018-08-16T09:30:35.010Z,100196.93
2018-08-16T09:33:28.777Z,100188.33
2018-08-16T09:35:59.621Z,100180.36
2018-08-16T09:38:30.537Z,100182.69
2018-08-16T09:41:01.554Z,100177.45
2018-08-16T09:43:32.481Z,100171.19
2018-08-16T09:47:27.295Z,100174.45
2018-08-16T09:49:58.346Z,100166.27
2018-08-16T09:52:29.379Z,100168.99
2018-08-16T09:55:00.619Z,100165.77
2018-08-16T09:57:31.539Z,100166.00
2018-08-16T10:00:05.506Z,100166.63
2018-08-16T10:02:36.539Z,100162.30
2018-08-16T10:05:07.472Z,100157.64
2018-08-16T10:07:38.481Z,100162.03
2018-08-16T10:12:30.553Z,100155.61
2018-08-16T10:15:01.494Z,100152.09
2018-08-16T10:17:32.473Z,100139.64
2018-08-16T10:20:03.501Z,100142.65
2018-08-16T10:22:34.493Z,100139.65
2018-08-16T10:25:05.611Z,100130.42
2018-08-16T10:27:36.585Z,100129.74
2018-08-16T10:30:10.407Z,100122.56
2018-08-16T10:32:41.497Z,100124.80
2018-08-16T10:35:12.502Z,100118.59
2018-08-16T10:37:43.468Z,100119.34
2018-08-16T10:40:14.524Z,100114.63
2018-08-16T10:42:45.501Z,100118.21
2018-08-16T10:45:16.523Z,100113.58
2018-08-16T10:47:47.487Z,100116.72
2018-08-16T10:50:18.558Z,100116.61
2018-08-16T10:52:49.536Z,100111.37
2018-08-16T10:55:20.526Z,100111.42
2018-08-16T10:57:51.503Z,100110.77
2018-08-16T11:00:24.445Z,100107.56
2018-08-16T11:02:55.495Z,100106.91
2018-08-16T11:05:26.513Z,100098.41
2018-08-16T11:07:57.496Z,100090.54
2018-08-16T11:10:28.785Z,100094.61
2018-08-16T11:12:59.581Z,100104.25
2018-08-16T11:15:31.602Z,100100.91
2018-08-16T11:18:02.513Z,100093.26
2018-08-16T11:20:33.478Z,100075.33
2018-08-16T11:23:05.536Z,100083.22
2018-08-16T11:25:36.497Z,100071.20
2018-08-16T11:28:08.377Z,100076.04
2018-08-16T11:30:39.577Z,100079.70
2018-08-16T11:33:12.183Z,100070.91
2018-08-16T11:35:43.625Z,100074.50
2018-08-16T11:38:14.595Z,100062.14
2018-08-16T11:40:45.516Z,100067.09
2018-08-16T11:43:16.532Z,100063.80
2018-08-16T11:45:47.506Z,100064.36
2018-08-16T11:48:18.517Z,100061.34
2018-08-16T11:50:49.516Z,100059.88
2018-08-16T11:53:20.506Z,100047.10
2018-08-16T11:55:51.534Z,100046.60
2018-08-16T11:58:22.518Z,100045.58
2018-08-16T12:00:53.488Z,100037.36
2018-08-16T12:03:24.515Z,100034.92
2018-08-16T12:05:55.521Z,100029.44
2018-08-16T12:08:26.535Z,100032.83
2018-08-16T12:10:57.476Z,100038.50
2018-08-16T12:13:28.450Z,100029.70
2018-08-16T12:15:59.530Z,100020.25
2018-08-16T12:18:30.489Z,100028.45
2018-08-16T12:21:01.595Z,100016.30
2018-08-16T12:26:12.575Z,100020.48
2018-08-16T12:28:43.541Z,100013.53
2018-08-16T12:31:14.514Z,99999.98
2018-08-16T12:33:45.651Z,100007.94
2018-08-16T12:36:16.743Z,100005.23
2018-08-16T12:38:48.247Z,100003.68
2018-08-16T12:41:18.645Z,100010.86
2018-08-16T12:43:49.791Z,100003.81
2018-08-16T12:46:20.684Z,100001.48
2018-08-16T12:48:51.574Z,100008.47
2018-08-16T12:51:22.573Z,99997.77
2018-08-16T12:53:53.563Z,100002.89
2018-08-16T12:56:24.505Z,99992.77
2018-08-16T12:58:55.652Z,99985.09
2018-08-16T13:01:27.301Z,99985.11
2018-08-16T13:03:58.417Z,99975.59
2018-08-16T13:06:29.546Z,99978.97
2018-08-16T13:09:00.574Z,99981.73
2018-08-16T13:11:31.575Z,99974.34
2018-08-16T13:14:02.623Z,99976.89
2018-08-16T13:16:33.913Z,99973.03
2018-08-16T13:19:05.402Z,99973.72
2018-08-16T13:21:36.667Z,99968.42
2018-08-16T13:24:07.573Z,99971.17
2018-08-16T13:26:38.505Z,99972.94
2018-08-16T13:29:09.557Z,99972.81
2018-08-16T13:31:40.510Z,99966.12
2018-08-16T13:34:11.599Z,99967.77
2018-08-16T13:36:42.548Z,99958.94
2018-08-16T13:39:15.029Z,99961.38
2018-08-16T13:41:46.303Z,99958.72
2018-08-16T13:44:17.399Z,99955.13
2018-08-16T13:46:48.507Z,99946.08
2018-08-16T13:49:19.492Z,99946.53
2018-08-16T13:51:50.563Z,99946.55
2018-08-16T13:54:21.498Z,99940.20
2018-08-16T13:56:52.522Z,99942.64
2018-08-16T13:59:23.498Z,99936.25
2018-08-16T14:01:54.494Z,99929.34
2018-08-16T14:04:25.481Z,99927.80
2018-08-16T14:06:56.548Z,99924.77
2018-08-16T14:09:27.529Z,99920.97
2018-08-16T14:11:58.561Z,99919.02
2018-08-16T14:14:29.534Z,99918.34
2018-08-16T14:17:00.518Z,99916.73
2018-08-16T14:19:31.526Z,99910.48
2018-08-16T14:22:02.535Z,99908.45
2018-08-16T14:24:33.497Z,99905.83
2018-08-16T14:27:04.525Z,99905.40
2018-08-16T14:29:35.522Z,99908.31
2018-08-16T14:32:06.585Z,99904.05
2018-08-16T14:34:37.509Z,99903.89
2018-08-16T14:37:08.626Z,99903.83
2018-08-16T14:39:39.499Z,99899.28
2018-08-16T14:42:10.500Z,99899.85
2018-08-16T14:44:41.501Z,99900.52
2018-08-16T14:47:12.520Z,99890.83
2018-08-16T14:49:43.522Z,99902.94
2018-08-16T14:52:14.493Z,99896.18
2018-08-16T14:54:45.514Z,99897.53
2018-08-16T14:57:16.550Z,99891.03
2018-08-16T14:59:47.456Z,99886.98
2018-08-16T15:02:18.494Z,99888.59
2018-08-16T15:04:49.814Z,99882.50
2018-08-16T15:07:20.615Z,99885.04
2018-08-16T15:09:51.536Z,99875.33
2018-08-16T15:12:23.422Z,99882.03
2018-08-16T15:14:54.519Z,99877.49
2018-08-16T15:17:25.502Z,99880.03
2018-08-16T15:19:56.556Z,99871.14
2018-08-16T15:22:27.523Z,99868.34
2018-08-16T15:24:58.722Z,99876.88
2018-08-16T15:27:29.594Z,99877.63
2018-08-16T15:30:00.489Z,99863.30
2018-08-16T15:32:31.510Z,99867.04
2018-08-16T15:35:02.559Z,99867.52
2018-08-16T15:37:33.620Z,99860.14
2018-08-16T15:40:04.598Z,99854.67
2018-08-16T15:42:35.501Z,99853.52
2018-08-16T15:45:06.558Z,99850.29
2018-08-16T15:47:37.510Z,99848.66
2018-08-16T15:50:12.581Z,99841.52
2018-08-16T15:52:43.654Z,99850.59
2018-08-16T15:55:14.477Z,99849.23
2018-08-16T15:57:45.525Z,99842.98
2018-08-16T16:00:16.622Z,99834.51
2018-08-16T16:02:48.221Z,99841.30
2018-08-16T16:05:19.381Z,99837.19
2018-08-16T16:07:50.396Z,99842.36
2018-08-16T16:10:21.545Z,99832.52
2018-08-16T16:12:52.498Z,99831.38
2018-08-16T16:15:23.530Z,99832.52
2018-08-16T16:17:54.512Z,99834.37
2018-08-16T16:20:25.510Z,99843.02
2018-08-16T16:22:56.506Z,99834.02
2018-08-16T16:25:27.546Z,99835.08
2018-08-16T16:27:58.531Z,99833.27
2018-08-16T16:30:29.583Z,99834.66
2018-08-16T16:33:00.519Z,99834.53
2018-08-16T16:35:31.597Z,99827.44
2018-08-16T16:38:03.640Z,99823.79
2018-08-16T16:40:34.674Z,99826.80
2018-08-16T16:43:06.028Z,99815.88
2018-08-16T16:45:37.377Z,99815.03
2018-08-16T16:48:09.294Z,99814.20
2018-08-16T16:50:40.397Z,99801.59
2018-08-16T16:53:12.552Z,99807.40
2018-08-16T16:55:44.241Z,99812.73
2018-08-16T16:58:15.424Z,99809.38
2018-08-16T17:00:46.503Z,99816.63
2018-08-16T17:03:17.525Z,99806.00
2018-08-16T17:05:48.513Z,99808.44
2018-08-16T17:08:19.547Z,99809.86
2018-08-16T17:10:50.503Z,99808.44
2018-08-16T17:13:21.598Z,99802.43
2018-08-16T17:15:52.846Z,99813.84
2018-08-16T17:18:24.215Z,99811.30
2018-08-16T17:20:55.415Z,99809.60
2018-08-16T17:23:26.587Z,99803.70
2018-08-16T17:25:57.578Z,99807.28
2018-08-16T17:28:28.554Z,99807.64
2018-08-16T17:30:59.588Z,99799.97
2018-08-16T17:33:30.621Z,99803.75
2018-08-16T17:36:01.765Z,99802.86
2018-08-16T17:38:32.621Z,99803.98
2018-08-16T17:41:03.980Z,99799.27
2018-08-16T17:43:34.769Z,99804.41
2018-08-16T17:46:05.649Z,99801.16
2018-08-16T17:48:36.625Z,99806.31
2018-08-16T17:51:07.590Z,99806.20
2018-08-16T17:53:38.607Z,99807.40
2018-08-16T17:56:09.855Z,99801.91
2018-08-16T17:58:41.048Z,99804.63
2018-08-16T18:01:12.383Z,99799.68
2018-08-16T18:03:44.056Z,99804.86
2018-08-16T18:06:15.393Z,99796.56
2018-08-16T18:08:46.585Z,99793.14
2018-08-16T18:11:17.485Z,99793.72
2018-08-16T18:13:48.594Z,99790.34
2018-08-16T18:16:20.597Z,99791.20
2018-08-16T18:18:51.556Z,99793.70
2018-08-16T18:21:22.492Z,99789.30
2018-08-16T18:23:53.525Z,99794.66
2018-08-16T18:26:24.552Z,99789.49
2018-08-16T18:28:55.633Z,99785.20
2018-08-16T18:31:26.738Z,99790.52
2018-08-16T18:33:57.634Z,99786.59
2018-08-16T18:36:29.239Z,99787.53
2018-08-16T18:39:00.421Z,99791.05
2018-08-16T18:41:31.619Z,99791.84
2018-08-16T18:44:02.691Z,99794.02
2018-08-16T18:46:34.286Z,99792.45
2018-08-16T18:49:10.515Z,99796.98
2018-08-16T18:51:42.030Z,99792.20
2018-08-16T18:54:13.652Z,99797.81
2018-08-16T18:56:47.983Z,99796.41
2018-08-16T18:59:19.699Z,99798.96
2018-08-16T19:01:51.301Z,99800.23
2018-08-16T19:04:22.605Z,99801.46
2018-08-16T19:06:53.802Z,99803.09
2018-08-16T19:09:25.521Z,99802.00
2018-08-16T19:11:56.577Z,99803.59
2018-08-16T19:14:27.835Z,99800.73
2018-08-16T19:16:59.402Z,99790.00
2018-08-16T19:19:30.635Z,99803.73
2018-08-16T19:22:05.364Z,99807.80
2018-08-16T19:24:37.244Z,99802.28
2018-08-16T19:27:07.940Z,99809.25
2018-08-16T19:29:39.384Z,99810.55
2018-08-16T19:32:10.493Z,99805.03
2018-08-16T19:34:41.555Z,99811.93
2018-08-16T19:37:12.782Z,99811.25
2018-08-16T19:39:43.759Z,99811.80
2018-08-16T19:42:15.025Z,99805.63
2018-08-16T19:44:46.787Z,99800.77
2018-08-16T19:47:18.023Z,99810.72
2018-08-16T19:49:49.396Z,99806.86
2018-08-16T19:52:20.547Z,99810.86
2018-08-16T19:54:51.587Z,99805.09
2018-08-16T19:57:22.611Z,99809.68
2018-08-16T19:59:53.590Z,99803.05
2018-08-16T20:02:24.528Z,99810.17
2018-08-16T20:04:55.806Z,99808.38
2018-08-16T20:07:27.185Z,99804.55
2018-08-16T20:09:58.483Z,99813.38
2018-08-16T20:12:29.603Z,99809.86
2018-08-16T20:15:00.571Z,99812.73
2018-08-16T20:17:32.201Z,99814.36
2018-08-16T20:20:03.378Z,99814.41
2018-08-16T20:22:34.535Z,99813.58
2018-08-16T20:25:05.662Z,99813.98
2018-08-16T20:27:36.541Z,99810.09
2018-08-16T20:30:08.202Z,99812.75
2018-08-16T20:32:39.362Z,99819.73
2018-08-16T20:35:10.438Z,99824.95
2018-08-16T20:37:41.530Z,99823.47
2018-08-16T20:40:12.530Z,99819.70
2018-08-16T20:42:43.699Z,99815.39
2018-08-16T20:45:14.593Z,99823.80
2018-08-16T20:47:45.576Z,99823.11
2018-08-16T20:50:16.534Z,99826.37
2018-08-16T20:52:47.555Z,99823.50
2018-08-16T20:55:18.541Z,99821.63
2018-08-16T20:57:49.522Z,99828.11
2018-08-16T21:02:51.624Z,99831.88
2018-08-16T21:05:22.508Z,99828.44
2018-08-16T21:07:53.516Z,99827.11
2018-08-16T21:10:24.508Z,99828.01
2018-08-16T21:12:55.484Z,99823.91
2018-08-16T21:15:26.501Z,99821.86
2018-08-16T21:17:57.538Z,99821.21
2018-08-16T21:20:28.535Z,99826.30
2018-08-16T21:22:59.489Z,99824.81
2018-08-16T21:25:30.488Z,99825.62
2018-08-16T21:28:01.494Z,99824.64
2018-08-16T21:30:32.502Z,99827.03
2018-08-16T21:33:03.486Z,99826.42
2018-08-16T21:35:34.480Z,99832.14
2018-08-16T21:38:05.514Z,99829.35
2018-08-16T21:40:36.785Z,99827.17
2018-08-16T21:43:07.665Z,99826.96
2018-08-16T21:45:38.505Z,99822.73
2018-08-16T21:48:09.513Z,99828.67
2018-08-16T21:50:40.442Z,99833.37
2018-08-16T21:53:11.477Z,99834.95
2018-08-16T21:55:42.512Z,99838.47
2018-08-16T21:58:13.472Z,99842.27
2018-08-16T22:00:55.229Z,99845.95
2018-08-16T22:03:27.579Z,99845.09
2018-08-16T22:06:05.435Z,99843.39
2018-08-16T22:08:45.727Z,99842.20
2018-08-16T22:11:16.661Z,99846.45
2018-08-16T22:13:47.533Z,99845.90
2018-08-16T22:16:18.481Z,99848.41
2018-08-16T22:18:49.468Z,99846.22
2018-08-16T22:21:20.517Z,99844.66
2018-08-16T22:23:51.491Z,99846.27
2018-08-16T22:26:22.529Z,99838.92
2018-08-16T22:28:53.488Z,99835.26
2018-08-16T22:31:24.542Z,99829.64
2018-08-16T22:33:55.598Z,99837.44
2018-08-16T22:36:26.555Z,99832.56
2018-08-16T22:38:57.513Z,99831.11
2018-08-16T22:41:28.497Z,99832.69
2018-08-16T22:44:00.380Z,99832.39
2018-08-16T22:46:31.501Z,99829.44
2018-08-16T22:49:02.461Z,99832.64
2018-08-16T22:51:33.499Z,99832.01
2018-08-16T22:54:04.481Z,99831.64
2018-08-16T22:56:35.501Z,99834.05
2018-08-16T22:59:06.654Z,99831.77
2018-08-16T23:01:37.631Z,99831.77
2018-08-16T23:04:08.585Z,99828.25
2018-08-16T23:06:39.484Z,99829.99
2018-08-16T23:09:10.494Z,99825.27
2018-08-16T23:11:41.477Z,99831.47
2018-08-16T23:14:12.542Z,99827.31
2018-08-16T23:16:43.522Z,99820.35
2018-08-16T23:19:14.498Z,99826.30
2018-08-16T23:21:45.511Z,99821.69
2018-08-16T23:24:16.450Z,99819.72
2018-08-16T23:26:47.486Z,99819.72
2018-08-16T23:29:18.553Z,99825.52
2018-08-16T23:31:49.489Z,99826.30
2018-08-16T23:34:20.409Z,99820.92
2018-08-16T23:36:51.489Z,99827.97
2018-08-16T23:39:22.473Z,99822.37
2018-08-16T23:41:53.524Z,99826.44
2018-08-16T23:44:24.530Z,99830.05
2018-08-16T23:46:55.509Z,99827.48
2018-08-16T23:52:10.488Z,99823.45
2018-08-16T23:54:41.456Z,99821.37
2018-08-16T23:57:12.497Z,99821.69
2018-08-16T23:59:43.485Z,99820.05
